»·PEaware :: AAL343 KSLC-KGJT

AAL343 :: KSLC-KGJT

FLIGHT INFORMATION

Flight Status: Arrived
Operator:
American Airlines
More flights by this operator :: More flights under this callsign
Pilot: James W. (12414)
Aircraft: BOEING 737-800
(B738)
More flights by this aircraft type
Origin: KSLC Salt Lake City Intl
United States
Destination: KGJT Walker
United States
More flights between these airports :: More routes between these airports
Route: +LEETZ6 MTU JNC
File this flight plan on PilotEdge
Remarks:
Altitude:
(Current/Filed)
290ft
Speed:
(Current/Filed)
450kts
Departed: 01-Nov-17 05:13 PM
Arrived: 01-Nov-17 06:05 PM
Distance/Time
Traveled:
187nm/0:52
Distance/Time
To Go:
Arrived

Flight Plot

Page will automatically refresh every two minutes.

Flight plan parsing failed; only flown route is shown


Map Options




Map Legend


Flown Route
Filed Route
Departure Airport
Arrival Airport
Navaid (VOR, NDB)
Fix

Horizontal Profiles

Position Reports

Time Latitude Longitude Heading Altitude Ground
Speed
01-Nov-17 16:44 40.785184 -111.977971 351 4234ft 0kts
01-Nov-17 16:45 40.785184 -111.977971 351 4234ft 0kts
01-Nov-17 16:46 40.785184 -111.977971 351 4234ft 0kts
01-Nov-17 16:47 40.785184 -111.977971 351 4234ft 0kts
01-Nov-17 16:48 40.785184 -111.977971 351 4234ft 0kts
01-Nov-17 16:49 40.785184 -111.977971 351 4234ft 0kts
01-Nov-17 16:50 40.785184 -111.977971 351 4234ft 0kts
01-Nov-17 16:51 40.785184 -111.977971 351 4234ft 0kts
01-Nov-17 16:52 40.785184 -111.977971 351 4234ft 0kts
01-Nov-17 16:53 40.785184 -111.977971 351 4234ft 0kts
01-Nov-17 16:54 40.785184 -111.977971 351 4234ft 0kts
01-Nov-17 16:55 40.785184 -111.977971 351 4234ft 0kts
01-Nov-17 16:56 40.785184 -111.977971 351 4234ft 0kts
01-Nov-17 16:57 40.785184 -111.977971 351 4234ft 0kts
01-Nov-17 16:58 40.785184 -111.977971 351 4234ft 0kts
01-Nov-17 16:59 40.785184 -111.977971 351 4234ft 0kts
01-Nov-17 17:00 40.785184 -111.977971 351 4234ft 0kts
01-Nov-17 17:01 40.785184 -111.977971 351 4234ft 0kts
01-Nov-17 17:02 40.785184 -111.977971 351 4234ft 0kts
01-Nov-17 17:03 40.785184 -111.977971 351 4234ft 0kts
01-Nov-17 17:04 40.785184 -111.977971 351 4234ft 0kts
01-Nov-17 17:05 40.785184 -111.977971 351 4234ft 0kts
01-Nov-17 17:06 40.785184 -111.977971 351 4234ft 0kts
01-Nov-17 17:07 40.785184 -111.977971 351 4234ft 0kts
01-Nov-17 17:08 40.784975 -111.977930 351 4235ft 2kts
01-Nov-17 17:09 40.784709 -111.978116 89 4235ft 1kts
01-Nov-17 17:10 40.784708 -111.978136 88 4234ft 0kts
01-Nov-17 17:11 40.784708 -111.978136 88 4234ft 0kts
01-Nov-17 17:12 40.784834 -111.976977 65 4234ft 12kts
01-Nov-17 17:13 40.789166 -111.976985 355 4234ft 18kts
01-Nov-17 17:14 40.795304 -111.977697 354 4234ft 20kts
01-Nov-17 17:15 40.802105 -111.978496 355 4234ft 28kts
01-Nov-17 17:16 40.807143 -111.978941 27 4235ft 10kts
01-Nov-17 17:17 40.806982 -111.976876 162 4235ft 10kts
01-Nov-17 17:18 40.792508 -111.975212 175 4235ft 162kts
01-Nov-17 17:19 40.742240 -111.979556 221 6128ft 214kts
01-Nov-17 17:20 40.745727 -112.066036 315 6163ft 291kts
01-Nov-17 17:21 40.804376 -112.132254 318 8411ft 288kts
01-Nov-17 17:22 40.861141 -112.201667 316 10887ft 302kts
01-Nov-17 17:23 40.940311 -112.239072 353 13549ft 326kts
01-Nov-17 17:24 41.024752 -112.192079 48 16087ft 380kts
01-Nov-17 17:25 41.037375 -112.055072 111 18531ft 409kts
01-Nov-17 17:26 40.974796 -111.934786 138 20946ft 404kts
01-Nov-17 17:27 40.898144 -111.828859 136 23318ft 400kts
01-Nov-17 17:28 40.824917 -111.723924 135 25576ft 382kts
01-Nov-17 17:29 40.756237 -111.621887 122 26860ft 386kts
01-Nov-17 17:30 40.715672 -111.485251 110 27167ft 416kts
01-Nov-17 17:31 40.674030 -111.340353 111 27445ft 445kts
01-Nov-17 17:32 40.628530 -111.185866 111 27637ft 473kts
01-Nov-17 17:33 40.580365 -111.022386 111 27813ft 500kts
01-Nov-17 17:34 40.529388 -110.848500 111 27976ft 526kts
01-Nov-17 17:35 40.476156 -110.665852 110 28400ft 542kts
01-Nov-17 17:36 40.422762 -110.482483 112 28747ft 539kts
01-Nov-17 17:37 40.328640 -110.348128 147 28763ft 530kts
01-Nov-17 17:38 40.220618 -110.217879 139 28751ft 534kts
01-Nov-17 17:39 40.114070 -110.083421 139 28752ft 534kts
01-Nov-17 17:40 40.005945 -109.951489 140 28754ft 533kts
01-Nov-17 17:41 39.898694 -109.821013 140 28755ft 533kts
01-Nov-17 17:42 39.791668 -109.690368 139 28753ft 534kts
01-Nov-17 17:43 39.683871 -109.558913 138 28772ft 530kts
01-Nov-17 17:44 39.576647 -109.427643 137 28252ft 539kts
01-Nov-17 17:45 39.472084 -109.299506 137 25731ft 509kts
01-Nov-17 17:46 39.372893 -109.177874 137 23156ft 482kts
01-Nov-17 17:47 39.279149 -109.062681 137 20638ft 461kts
01-Nov-17 17:48 39.188783 -108.951687 136 18138ft 443kts
01-Nov-17 17:49 39.102097 -108.844956 136 15964ft 419kts
01-Nov-17 17:50 39.040703 -108.737340 110 15912ft 355kts
01-Nov-17 17:51 39.002489 -108.619351 110 15902ft 358kts
01-Nov-17 17:52 38.963217 -108.499697 111 13714ft 364kts
01-Nov-17 17:53 38.945925 -108.377906 70 11566ft 345kts
01-Nov-17 17:54 39.004260 -108.330998 343 9973ft 269kts
01-Nov-17 17:55 39.049779 -108.400685 305 7167ft 255kts
01-Nov-17 17:56 39.088196 -108.462529 306 6935ft 216kts
01-Nov-17 17:57 39.125757 -108.527820 306 7783ft 231kts
01-Nov-17 17:58 39.163574 -108.593513 306 7768ft 228kts
01-Nov-17 17:59 39.191253 -108.661298 251 7731ft 227kts
01-Nov-17 18:00 39.140606 -108.705500 174 7724ft 227kts
01-Nov-17 18:01 39.098806 -108.647897 124 7777ft 228kts
01-Nov-17 18:02 39.063011 -108.581095 124 7770ft 228kts
01-Nov-17 18:03 39.027328 -108.514448 124 7770ft 228kts
01-Nov-17 18:04 38.991427 -108.447339 124 7770ft 228kts
01-Nov-17 18:05 38.991737 -108.387678 31 6933ft 183kts
01-Nov-17 18:06 39.032707 -108.377558 323 6930ft 168kts
01-Nov-17 18:07 39.065128 -108.418622 306 6174ft 163kts
01-Nov-17 18:08 39.091738 -108.466149 305 5759ft 167kts
01-Nov-17 18:09 39.118140 -108.513834 305 4917ft 164kts
01-Nov-17 18:10 39.128147 -108.531950 304 4865ft 19kts
01-Nov-17 18:11 39.128901 -108.535651 128 4865ft 14kts
01-Nov-17 18:12 39.125205 -108.528970 124 4864ft 15kts
01-Nov-17 18:13 39.123131 -108.527803 218 4865ft 6kts

Navigation Log

Ident Type
Flight plan parsing failed, navigation log unavailable